Patricia Ann — WDE2845 — position and weather

sailwx.info

Track history (hours):
 
Tides and Currents Weather Stations Pressure Air Temp Water Temp Dewpoint Dewpoint Depression Visibility Wind Speed Wind Dir Waves Ship Positions

Patricia Ann

Owner: AmNav Maritime Services, Oakland, CA. More information available from US FCC via Universal Licensing System and Coast Guard Vessel Documentation Center.

Last reported at 2015-Aug-02 06:05 UTC. Time now 2015-Aug-02 08:15 UTC.
Position N 38°02' W 122°08'.

Length 24 m; draft 4.9 m.

Type: Tug. MMSI: 367330510.

Date/timePositionNaut miles runAvg speedWind from/ knotsBaromVisibWave heightAir tempDewpointWater temp
2015-Aug-02 06:05N 38°02' W 122°08'17 0.8
2015-Aug-01 10:05N 38°01' W 121°47'17 3.0
2015-Aug-01 04:26N 38°02' W 122°09'15 7.2
2015-Aug-01 02:21N 37°57' W 122°27'7 9.0
2015-Aug-01 01:33N 37°50' W 122°24'5 5.5
2015-Aug-01 00:33N 37°49' W 122°31'1 0.9
2015-Jul-31 23:33N 37°49' W 122°30'9 9.0
2015-Jul-31 22:33N 37°49' W 122°19'0 0.0
2015-Jul-31 21:33N 37°49' W 122°19'0 0.0
2015-Jul-31 20:33N 37°49' W 122°19'0 0.0
2015-Jul-31 19:34N 37°49' W 122°19'0 0.0
2015-Jul-31 18:33N 37°49' W 122°19'0 0.0
2015-Jul-31 17:33N 37°49' W 122°19'0 0.0
2015-Jul-31 16:34N 37°49' W 122°19'0 0.0
2015-Jul-31 15:33N 37°49' W 122°19'0 0.0
2015-Jul-31 14:33N 37°49' W 122°19'4 4.3
2015-Jul-31 13:33N 37°48' W 122°24'2 1.6
2015-Jul-31 12:34N 37°49' W 122°26'6 6.2
2015-Jul-31 11:33N 37°55' W 122°25'0 0.0
2015-Jul-31 10:33N 37°55' W 122°25'0 0.0
2015-Jul-31 09:33N 37°55' W 122°25'0 0.0
2015-Jul-31 08:33N 37°55' W 122°25'0 0.0
2015-Jul-31 07:33N 37°55' W 122°25'0 0.0
2015-Jul-31 06:33N 37°55' W 122°25'0 0.0
2015-Jul-31 05:33N 37°55' W 122°24'1 1.1
2015-Jul-31 04:33N 37°54' W 122°25'4 4.4
2015-Jul-31 03:33N 37°51' W 122°22'3 3.1
2015-Jul-31 02:33N 37°49' W 122°19'0 0.0
2015-Jul-31 01:34N 37°49' W 122°19'0 0.0
2015-Jul-31 00:33N 37°49' W 122°19'0 0.0
2015-Jul-30 23:33N 37°49' W 122°19'0 0.0
2015-Jul-30 22:33N 37°49' W 122°19'0 0.0
2015-Jul-30 21:33N 37°49' W 122°19'0 0.0
2015-Jul-30 20:33N 37°49' W 122°19'0 0.0
2015-Jul-30 19:32N 37°49' W 122°19'2 1.7
2015-Jul-30 18:33N 37°48' W 122°21'0 0.4
2015-Jul-30 17:33N 37°49' W 122°20'1 1.3
2015-Jul-30 16:33N 37°49' W 122°19'0 0.0
2015-Jul-30 15:33N 37°49' W 122°19'0 0.0
2015-Jul-30 14:33N 37°49' W 122°19'0 0.4
2015-Jul-30 13:33N 37°49' W 122°19'3 2.6
2015-Jul-30 12:34N 37°48' W 122°22'2 1.7
2015-Jul-30 11:33N 37°49' W 122°20'1 0.8
2015-Jul-30 10:33N 37°49' W 122°19'0 0.1
2015-Jul-30 09:33N 37°49' W 122°19'0 0.4
2015-Jul-30 08:33N 37°49' W 122°19'0 0.0
2015-Jul-30 07:33N 37°49' W 122°19'0 0.0
2015-Jul-30 06:33N 37°49' W 122°19'0 0.0
2015-Jul-30 05:34N 37°49' W 122°19'0 0.0
2015-Jul-30 04:33N 37°49' W 122°19'0 0.0
2015-Jul-30 03:34N 37°49' W 122°19'0 0.0
2015-Jul-30 02:33N 37°49' W 122°19'0 0.2
2015-Jul-30 01:33N 37°49' W 122°19'0 0.0
2015-Jul-30 00:33N 37°49' W 122°19'1 0.9
2015-Jul-29 23:34N 37°49' W 122°20'1 1.0
2015-Jul-29 22:33N 37°49' W 122°19'0 0.0
2015-Jul-29 21:34N 37°49' W 122°19'0 0.0
2015-Jul-29 20:33N 37°49' W 122°19'0 0.0
2015-Jul-29 19:33N 37°49' W 122°19'0 0.0
2015-Jul-29 18:33N 37°49' W 122°19'0 0.0
2015-Jul-29 17:33N 37°49' W 122°19'2 1.9
2015-Jul-29 16:34N 37°48' W 122°18'1 0.8
2015-Jul-29 15:33N 37°48' W 122°17'0 0.0
2015-Jul-29 14:33N 37°48' W 122°17'0 0.0
2015-Jul-29 13:33N 37°48' W 122°17'0 0.2
2015-Jul-29 12:33N 37°48' W 122°17'0 0.1
2015-Jul-29 11:33N 37°48' W 122°17'0 0.0
2015-Jul-29 10:33N 37°48' W 122°17'1 1.1
2015-Jul-29 09:33N 37°48' W 122°18'1 1.2
2015-Jul-29 08:33N 37°48' W 122°20'2 1.6
2015-Jul-29 07:33N 37°49' W 122°19'0 0.0
2015-Jul-29 06:33N 37°49' W 122°19'0 0.0
2015-Jul-29 05:33N 37°49' W 122°19'0 0.0
2015-Jul-29 04:33N 37°49' W 122°19'0 0.0
2015-Jul-29 03:33N 37°49' W 122°19'1 0.8
2015-Jul-29 02:34N 37°49' W 122°20'2 1.7
2015-Jul-29 01:33N 37°48' W 122°18'0 0.4
2015-Jul-29 00:33N 37°48' W 122°19'1 1.5
2015-Jul-28 23:34N 37°49' W 122°19'1 1.3
2015-Jul-28 22:34N 37°48' W 122°20'1 0.6
2015-Jul-28 21:34N 37°49' W 122°20'1 1.0
2015-Jul-28 20:34N 37°49' W 122°19'0 0.0
2015-Jul-28 19:33N 37°49' W 122°19'0 0.0
2015-Jul-28 18:34N 37°49' W 122°19'0 0.0
2015-Jul-28 17:33N 37°49' W 122°19'0 0.0
2015-Jul-28 16:33N 37°49' W 122°19'0 0.0
2015-Jul-28 15:34N 37°49' W 122°19'0 0.0
2015-Jul-28 14:33N 37°49' W 122°19'0 0.0
2015-Jul-28 13:33N 37°49' W 122°19'0 0.0
2015-Jul-28 12:33N 37°49' W 122°19'0 0.0
2015-Jul-28 11:33N 37°49' W 122°19'0 0.0
2015-Jul-28 10:33N 37°49' W 122°19'0 0.0
2015-Jul-28 09:33N 37°49' W 122°19'0 0.0
2015-Jul-28 08:34N 37°49' W 122°19'0 0.0
2015-Jul-28 07:33N 37°49' W 122°19'0 0.0
2015-Jul-28 06:33N 37°49' W 122°19'0 0.0
2015-Jul-28 05:34N 37°49' W 122°19'0 0.0
2015-Jul-28 04:33N 37°49' W 122°19'0 0.0
2015-Jul-28 03:33N 37°49' W 122°19'0 0.0
2015-Jul-28 02:33N 37°49' W 122°19'0 0.0
2015-Jul-28 01:33N 37°49' W 122°19'0 0.0
2015-Jul-28 00:33N 37°49' W 122°19'0 0.0
2015-Jul-27 23:33N 37°49' W 122°19'0 0.0
2015-Jul-27 22:34N 37°49' W 122°19'0 0.0
2015-Jul-27 21:33N 37°49' W 122°19'0 0.0
2015-Jul-27 20:33N 37°49' W 122°19'0 0.0
2015-Jul-27 19:34N 37°49' W 122°19'0 0.0
2015-Jul-27 18:33N 37°49' W 122°19'0 0.0
2015-Jul-27 17:33N 37°49' W 122°19'0 0.0
2015-Jul-27 16:33N 37°49' W 122°19'0 0.0
2015-Jul-27 15:33N 37°49' W 122°19'0 0.0
2015-Jul-27 14:33N 37°49' W 122°19'0 0.0
2015-Jul-27 13:33N 37°49' W 122°19'0 0.0
2015-Jul-27 12:33N 37°49' W 122°19'0 0.0
2015-Jul-27 11:33N 37°49' W 122°19'0 0.0
2015-Jul-27 10:33N 37°49' W 122°19'0 0.0
2015-Jul-27 09:33N 37°49' W 122°19'0 0.0
2015-Jul-27 08:33N 37°49' W 122°19'0 0.0
2015-Jul-27 07:33N 37°49' W 122°19'0 0.0
2015-Jul-27 06:33N 37°49' W 122°19'0 0.0
2015-Jul-27 05:33N 37°49' W 122°19'0 0.0
2015-Jul-27 04:33N 37°49' W 122°19'0 0.0
2015-Jul-27 03:33N 37°49' W 122°19'0 0.0
2015-Jul-27 02:33N 37°49' W 122°19'0 0.0
2015-Jul-27 01:33N 37°49' W 122°19'0 0.0
2015-Jul-27 00:33N 37°49' W 122°19'0 0.0
2015-Jul-26 23:33N 37°49' W 122°19'0 0.0
2015-Jul-26 22:33N 37°49' W 122°19'0 0.0
2015-Jul-26 21:33N 37°49' W 122°19'0 0.0
2015-Jul-26 20:33N 37°49' W 122°19'0 0.0
2015-Jul-26 19:33N 37°49' W 122°19'0 0.0
2015-Jul-26 18:33N 37°49' W 122°19'0 0.0
2015-Jul-26 17:33N 37°49' W 122°19'0 0.0
2015-Jul-26 16:33N 37°49' W 122°19'0 0.0
2015-Jul-26 15:33N 37°49' W 122°19'0 0.0
2015-Jul-26 14:33N 37°49' W 122°19'0 0.0
2015-Jul-26 13:33N 37°49' W 122°19'0 0.0
2015-Jul-26 12:33N 37°49' W 122°19'0 0.0
2015-Jul-26 11:33N 37°49' W 122°19'0 0.0
2015-Jul-26 10:33N 37°49' W 122°19'0 0.0
2015-Jul-26 09:33N 37°49' W 122°19'0 0.0
2015-Jul-26 08:33N 37°49' W 122°19'0 0.0
2015-Jul-26 07:33N 37°49' W 122°19'0 0.0
2015-Jul-26 06:33N 37°49' W 122°19'0 0.0
2015-Jul-26 05:34N 37°49' W 122°19'0 0.0
2015-Jul-26 04:33N 37°49' W 122°19'0 0.0
2015-Jul-26 03:33N 37°49' W 122°19'0 0.0
2015-Jul-26 02:33N 37°49' W 122°19'0 0.0
2015-Jul-26 01:33N 37°49' W 122°19'0 0.0
2015-Jul-26 00:33N 37°49' W 122°19'0 0.0
2015-Jul-25 23:34N 37°49' W 122°19'0 0.0
2015-Jul-25 22:34N 37°49' W 122°19'0 0.0
2015-Jul-25 21:33N 37°49' W 122°19'0 0.0
2015-Jul-25 20:33N 37°49' W 122°19'0 0.0
2015-Jul-25 19:33N 37°49' W 122°19'0 0.0
2015-Jul-25 18:33N 37°49' W 122°19'0 0.0
2015-Jul-25 17:34N 37°49' W 122°19'0 0.0
2015-Jul-25 16:33N 37°49' W 122°19'0 0.0
2015-Jul-25 15:34N 37°49' W 122°19'0 0.0
2015-Jul-25 14:33N 37°49' W 122°19'0 0.0
2015-Jul-25 13:33N 37°49' W 122°19'0 0.0
2015-Jul-25 12:33N 37°49' W 122°19'0 0.0
2015-Jul-25 11:33N 37°49' W 122°19'0 0.0
2015-Jul-25 10:33N 37°49' W 122°19'0 0.0
2015-Jul-25 09:33N 37°49' W 122°19'0 0.0
2015-Jul-25 08:33N 37°49' W 122°19'0 0.0
2015-Jul-25 07:33N 37°49' W 122°19'0 0.0
2015-Jul-25 06:33N 37°49' W 122°19'0 0.0
2015-Jul-25 05:33N 37°49' W 122°19'0 0.0
2015-Jul-25 04:33N 37°49' W 122°19'0 0.0
2015-Jul-25 03:33N 37°49' W 122°19'0 0.0
2015-Jul-25 02:33N 37°49' W 122°19'0 0.0
2015-Jul-25 01:33N 37°49' W 122°19'0 0.0
2015-Jul-25 00:33N 37°49' W 122°19'0 0.0
2015-Jul-24 23:33N 37°49' W 122°19'1 0.6
2015-Jul-24 22:33N 37°49' W 122°19'2 2.1
2015-Jul-24 21:33N 37°47' W 122°17'  
Track history (hours):
 
Tides and Currents Weather Stations Pressure Air Temp Water Temp Dewpoint Dewpoint Depression Visibility Wind Speed Wind Dir Waves Ship Positions

Patricia Ann

Owner: AmNav Maritime Services, Oakland, CA. More information available from US FCC via Universal Licensing System and Coast Guard Vessel Documentation Center.

Last reported at 2015-Aug-02 06:05 UTC. Time now 2015-Aug-02 08:15 UTC.
Position N 38°02' W 122°08'.

Length 24 m; draft 4.9 m.

Type: Tug. MMSI: 367330510.

Date/timePositionNaut miles runAvg speedWind from/ knotsBaromVisibWave heightAir tempDewpointWater temp
2015-Aug-02 06:05N 38°02' W 122°08'17 0.8
2015-Aug-01 10:05N 38°01' W 121°47'17 3.0
2015-Aug-01 04:26N 38°02' W 122°09'15 7.2
2015-Aug-01 02:21N 37°57' W 122°27'7 9.0
2015-Aug-01 01:33N 37°50' W 122°24'5 5.5
2015-Aug-01 00:33N 37°49' W 122°31'1 0.9
2015-Jul-31 23:33N 37°49' W 122°30'9 9.0
2015-Jul-31 22:33N 37°49' W 122°19'0 0.0
2015-Jul-31 21:33N 37°49' W 122°19'0 0.0
2015-Jul-31 20:33N 37°49' W 122°19'0 0.0
2015-Jul-31 19:34N 37°49' W 122°19'0 0.0
2015-Jul-31 18:33N 37°49' W 122°19'0 0.0
2015-Jul-31 17:33N 37°49' W 122°19'0 0.0
2015-Jul-31 16:34N 37°49' W 122°19'0 0.0
2015-Jul-31 15:33N 37°49' W 122°19'0 0.0
2015-Jul-31 14:33N 37°49' W 122°19'4 4.3
2015-Jul-31 13:33N 37°48' W 122°24'2 1.6
2015-Jul-31 12:34N 37°49' W 122°26'6 6.2
2015-Jul-31 11:33N 37°55' W 122°25'0 0.0
2015-Jul-31 10:33N 37°55' W 122°25'0 0.0
2015-Jul-31 09:33N 37°55' W 122°25'0 0.0
2015-Jul-31 08:33N 37°55' W 122°25'0 0.0
2015-Jul-31 07:33N 37°55' W 122°25'0 0.0
2015-Jul-31 06:33N 37°55' W 122°25'0 0.0
2015-Jul-31 05:33N 37°55' W 122°24'1 1.1
2015-Jul-31 04:33N 37°54' W 122°25'4 4.4
2015-Jul-31 03:33N 37°51' W 122°22'3 3.1
2015-Jul-31 02:33N 37°49' W 122°19'0 0.0
2015-Jul-31 01:34N 37°49' W 122°19'0 0.0
2015-Jul-31 00:33N 37°49' W 122°19'0 0.0
2015-Jul-30 23:33N 37°49' W 122°19'0 0.0
2015-Jul-30 22:33N 37°49' W 122°19'0 0.0
2015-Jul-30 21:33N 37°49' W 122°19'0 0.0
2015-Jul-30 20:33N 37°49' W 122°19'0 0.0
2015-Jul-30 19:32N 37°49' W 122°19'2 1.7
2015-Jul-30 18:33N 37°48' W 122°21'0 0.4
2015-Jul-30 17:33N 37°49' W 122°20'1 1.3
2015-Jul-30 16:33N 37°49' W 122°19'0 0.0
2015-Jul-30 15:33N 37°49' W 122°19'0 0.0
2015-Jul-30 14:33N 37°49' W 122°19'0 0.4
2015-Jul-30 13:33N 37°49' W 122°19'3 2.6
2015-Jul-30 12:34N 37°48' W 122°22'2 1.7
2015-Jul-30 11:33N 37°49' W 122°20'1 0.8
2015-Jul-30 10:33N 37°49' W 122°19'0 0.1
2015-Jul-30 09:33N 37°49' W 122°19'0 0.4
2015-Jul-30 08:33N 37°49' W 122°19'0 0.0
2015-Jul-30 07:33N 37°49' W 122°19'0 0.0
2015-Jul-30 06:33N 37°49' W 122°19'0 0.0
2015-Jul-30 05:34N 37°49' W 122°19'0 0.0
2015-Jul-30 04:33N 37°49' W 122°19'0 0.0
2015-Jul-30 03:34N 37°49' W 122°19'0 0.0
2015-Jul-30 02:33N 37°49' W 122°19'0 0.2
2015-Jul-30 01:33N 37°49' W 122°19'0 0.0
2015-Jul-30 00:33N 37°49' W 122°19'1 0.9
2015-Jul-29 23:34N 37°49' W 122°20'1 1.0
2015-Jul-29 22:33N 37°49' W 122°19'0 0.0
2015-Jul-29 21:34N 37°49' W 122°19'0 0.0
2015-Jul-29 20:33N 37°49' W 122°19'0 0.0
2015-Jul-29 19:33N 37°49' W 122°19'0 0.0
2015-Jul-29 18:33N 37°49' W 122°19'0 0.0
2015-Jul-29 17:33N 37°49' W 122°19'2 1.9
2015-Jul-29 16:34N 37°48' W 122°18'1 0.8
2015-Jul-29 15:33N 37°48' W 122°17'0 0.0
2015-Jul-29 14:33N 37°48' W 122°17'0 0.0
2015-Jul-29 13:33N 37°48' W 122°17'0 0.2
2015-Jul-29 12:33N 37°48' W 122°17'0 0.1
2015-Jul-29 11:33N 37°48' W 122°17'0 0.0
2015-Jul-29 10:33N 37°48' W 122°17'1 1.1
2015-Jul-29 09:33N 37°48' W 122°18'1 1.2
2015-Jul-29 08:33N 37°48' W 122°20'2 1.6
2015-Jul-29 07:33N 37°49' W 122°19'0 0.0
2015-Jul-29 06:33N 37°49' W 122°19'0 0.0
2015-Jul-29 05:33N 37°49' W 122°19'0 0.0
2015-Jul-29 04:33N 37°49' W 122°19'0 0.0
2015-Jul-29 03:33N 37°49' W 122°19'1 0.8
2015-Jul-29 02:34N 37°49' W 122°20'2 1.7
2015-Jul-29 01:33N 37°48' W 122°18'0 0.4
2015-Jul-29 00:33N 37°48' W 122°19'1 1.5
2015-Jul-28 23:34N 37°49' W 122°19'1 1.3
2015-Jul-28 22:34N 37°48' W 122°20'1 0.6
2015-Jul-28 21:34N 37°49' W 122°20'1 1.0
2015-Jul-28 20:34N 37°49' W 122°19'0 0.0
2015-Jul-28 19:33N 37°49' W 122°19'0 0.0
2015-Jul-28 18:34N 37°49' W 122°19'0 0.0
2015-Jul-28 17:33N 37°49' W 122°19'0 0.0
2015-Jul-28 16:33N 37°49' W 122°19'0 0.0
2015-Jul-28 15:34N 37°49' W 122°19'0 0.0
2015-Jul-28 14:33N 37°49' W 122°19'0 0.0
2015-Jul-28 13:33N 37°49' W 122°19'0 0.0
2015-Jul-28 12:33N 37°49' W 122°19'0 0.0
2015-Jul-28 11:33N 37°49' W 122°19'0 0.0
2015-Jul-28 10:33N 37°49' W 122°19'0 0.0
2015-Jul-28 09:33N 37°49' W 122°19'0 0.0
2015-Jul-28 08:34N 37°49' W 122°19'0 0.0
2015-Jul-28 07:33N 37°49' W 122°19'0 0.0
2015-Jul-28 06:33N 37°49' W 122°19'0 0.0
2015-Jul-28 05:34N 37°49' W 122°19'0 0.0
2015-Jul-28 04:33N 37°49' W 122°19'0 0.0
2015-Jul-28 03:33N 37°49' W 122°19'0 0.0
2015-Jul-28 02:33N 37°49' W 122°19'0 0.0
2015-Jul-28 01:33N 37°49' W 122°19'0 0.0
2015-Jul-28 00:33N 37°49' W 122°19'0 0.0
2015-Jul-27 23:33N 37°49' W 122°19'0 0.0
2015-Jul-27 22:34N 37°49' W 122°19'0 0.0
2015-Jul-27 21:33N 37°49' W 122°19'0 0.0
2015-Jul-27 20:33N 37°49' W 122°19'0 0.0
2015-Jul-27 19:34N 37°49' W 122°19'0 0.0
2015-Jul-27 18:33N 37°49' W 122°19'0 0.0
2015-Jul-27 17:33N 37°49' W 122°19'0 0.0
2015-Jul-27 16:33N 37°49' W 122°19'0 0.0
2015-Jul-27 15:33N 37°49' W 122°19'0 0.0
2015-Jul-27 14:33N 37°49' W 122°19'0 0.0
2015-Jul-27 13:33N 37°49' W 122°19'0 0.0
2015-Jul-27 12:33N 37°49' W 122°19'0 0.0
2015-Jul-27 11:33N 37°49' W 122°19'0 0.0
2015-Jul-27 10:33N 37°49' W 122°19'0 0.0
2015-Jul-27 09:33N 37°49' W 122°19'0 0.0
2015-Jul-27 08:33N 37°49' W 122°19'0 0.0
2015-Jul-27 07:33N 37°49' W 122°19'0 0.0
2015-Jul-27 06:33N 37°49' W 122°19'0 0.0
2015-Jul-27 05:33N 37°49' W 122°19'0 0.0
2015-Jul-27 04:33N 37°49' W 122°19'0 0.0
2015-Jul-27 03:33N 37°49' W 122°19'0 0.0
2015-Jul-27 02:33N 37°49' W 122°19'0 0.0
2015-Jul-27 01:33N 37°49' W 122°19'0 0.0
2015-Jul-27 00:33N 37°49' W 122°19'0 0.0
2015-Jul-26 23:33N 37°49' W 122°19'0 0.0
2015-Jul-26 22:33N 37°49' W 122°19'0 0.0
2015-Jul-26 21:33N 37°49' W 122°19'0 0.0
2015-Jul-26 20:33N 37°49' W 122°19'0 0.0
2015-Jul-26 19:33N 37°49' W 122°19'0 0.0
2015-Jul-26 18:33N 37°49' W 122°19'0 0.0
2015-Jul-26 17:33N 37°49' W 122°19'0 0.0
2015-Jul-26 16:33N 37°49' W 122°19'0 0.0
2015-Jul-26 15:33N 37°49' W 122°19'0 0.0
2015-Jul-26 14:33N 37°49' W 122°19'0 0.0
2015-Jul-26 13:33N 37°49' W 122°19'0 0.0
2015-Jul-26 12:33N 37°49' W 122°19'0 0.0
2015-Jul-26 11:33N 37°49' W 122°19'0 0.0
2015-Jul-26 10:33N 37°49' W 122°19'0 0.0
2015-Jul-26 09:33N 37°49' W 122°19'0 0.0
2015-Jul-26 08:33N 37°49' W 122°19'0 0.0
2015-Jul-26 07:33N 37°49' W 122°19'0 0.0
2015-Jul-26 06:33N 37°49' W 122°19'0 0.0
2015-Jul-26 05:34N 37°49' W 122°19'0 0.0
2015-Jul-26 04:33N 37°49' W 122°19'0 0.0
2015-Jul-26 03:33N 37°49' W 122°19'0 0.0
2015-Jul-26 02:33N 37°49' W 122°19'0 0.0
2015-Jul-26 01:33N 37°49' W 122°19'0 0.0
2015-Jul-26 00:33N 37°49' W 122°19'0 0.0
2015-Jul-25 23:34N 37°49' W 122°19'0 0.0
2015-Jul-25 22:34N 37°49' W 122°19'0 0.0
2015-Jul-25 21:33N 37°49' W 122°19'0 0.0
2015-Jul-25 20:33N 37°49' W 122°19'0 0.0
2015-Jul-25 19:33N 37°49' W 122°19'0 0.0
2015-Jul-25 18:33N 37°49' W 122°19'0 0.0
2015-Jul-25 17:34N 37°49' W 122°19'0 0.0
2015-Jul-25 16:33N 37°49' W 122°19'0 0.0
2015-Jul-25 15:34N 37°49' W 122°19'0 0.0
2015-Jul-25 14:33N 37°49' W 122°19'0 0.0
2015-Jul-25 13:33N 37°49' W 122°19'0 0.0
2015-Jul-25 12:33N 37°49' W 122°19'0 0.0
2015-Jul-25 11:33N 37°49' W 122°19'0 0.0
2015-Jul-25 10:33N 37°49' W 122°19'0 0.0
2015-Jul-25 09:33N 37°49' W 122°19'0 0.0
2015-Jul-25 08:33N 37°49' W 122°19'0 0.0
2015-Jul-25 07:33N 37°49' W 122°19'0 0.0
2015-Jul-25 06:33N 37°49' W 122°19'0 0.0
2015-Jul-25 05:33N 37°49' W 122°19'0 0.0
2015-Jul-25 04:33N 37°49' W 122°19'0 0.0
2015-Jul-25 03:33N 37°49' W 122°19'0 0.0
2015-Jul-25 02:33N 37°49' W 122°19'0 0.0
2015-Jul-25 01:33N 37°49' W 122°19'0 0.0
2015-Jul-25 00:33N 37°49' W 122°19'0 0.0
2015-Jul-24 23:33N 37°49' W 122°19'1 0.6
2015-Jul-24 22:33N 37°49' W 122°19'2 2.1
2015-Jul-24 21:33N 37°47' W 122°17'  

Dump ship's entire track history